sensor_id;sensor_type;location;lat;lon;timestamp;P1;P2;P0
44980;PMS5003;67464;52.438;-1.904;2023-02-10T00:01:45;8;8;
44980;PMS5003;67464;52.438;-1.904;2023-02-10T00:04:11;11;9;
44980;PMS5003;67464;52.438;-1.904;2023-02-10T00:06:37;8;8;
44980;PMS5003;67464;52.438;-1.904;2023-02-10T00:09:02;13;9;
44980;PMS5003;67464;52.438;-1.904;2023-02-10T00:11:27;11;11;
44980;PMS5003;67464;52.438;-1.904;2023-02-10T00:13:53;11;9;
44980;PMS5003;67464;52.438;-1.904;2023-02-10T00:16:18;16;14;
44980;PMS5003;67464;52.438;-1.904;2023-02-10T00:18:44;12;11;
44980;PMS5003;67464;52.438;-1.904;2023-02-10T00:21:10;11;9;
44980;PMS5003;67464;52.438;-1.904;2023-02-10T00:23:35;11;11;
44980;PMS5003;67464;52.438;-1.904;2023-02-10T00:26:02;6;6;
44980;PMS5003;67464;52.438;-1.904;2023-02-10T00:28:25;7;7;
44980;PMS5003;67464;52.438;-1.904;2023-02-10T00:30:51;14;13;
44980;PMS5003;67464;52.438;-1.904;2023-02-10T00:33:16;11;8;
44980;PMS5003;67464;52.438;-1.904;2023-02-10T00:35:42;12;7;
44980;PMS5003;67464;52.438;-1.904;2023-02-10T00:38:07;9;9;
44980;PMS5003;67464;52.438;-1.904;2023-02-10T00:40:32;7;7;
44980;PMS5003;67464;52.438;-1.904;2023-02-10T00:42:57;6;6;
44980;PMS5003;67464;52.438;-1.904;2023-02-10T00:45:22;9;7;
44980;PMS5003;67464;52.438;-1.904;2023-02-10T00:47:48;8;8;
44980;PMS5003;67464;52.438;-1.904;2023-02-10T00:50:13;11;8;
44980;PMS5003;67464;52.438;-1.904;2023-02-10T00:52:38;7;7;
44980;PMS5003;67464;52.438;-1.904;2023-02-10T00:55:04;16;7;
44980;PMS5003;67464;52.438;-1.904;2023-02-10T00:57:30;12;9;
44980;PMS5003;67464;52.438;-1.904;2023-02-10T00:59:55;8;8;
44980;PMS5003;67464;52.438;-1.904;2023-02-10T01:02:20;9;9;
44980;PMS5003;67464;52.438;-1.904;2023-02-10T01:04:46;8;8;
44980;PMS5003;67464;52.438;-1.904;2023-02-10T01:07:11;15;11;
44980;PMS5003;67464;52.438;-1.904;2023-02-10T01:09:37;10;7;
44980;PMS5003;67464;52.438;-1.904;2023-02-10T01:12:02;6;6;
44980;PMS5003;67464;52.438;-1.904;2023-02-10T01:14:27;5;5;
44980;PMS5003;67464;52.438;-1.904;2023-02-10T01:16:53;7;7;
44980;PMS5003;67464;52.438;-1.904;2023-02-10T01:19:18;11;8;
44980;PMS5003;67464;52.438;-1.904;2023-02-10T01:21:43;9;9;
44980;PMS5003;67464;52.438;-1.904;2023-02-10T01:24:09;12;8;
44980;PMS5003;67464;52.438;-1.904;2023-02-10T01:26:34;8;7;
44980;PMS5003;67464;52.438;-1.904;2023-02-10T01:28:59;13;11;
44980;PMS5003;67464;52.438;-1.904;2023-02-10T01:31:25;13;9;
44980;PMS5003;67464;52.438;-1.904;2023-02-10T01:33:51;7;7;
44980;PMS5003;67464;52.438;-1.904;2023-02-10T01:36:16;6;6;
44980;PMS5003;67464;52.438;-1.904;2023-02-10T01:38:41;7;6;
44980;PMS5003;67464;52.438;-1.904;2023-02-10T01:41:06;11;7;
44980;PMS5003;67464;52.438;-1.904;2023-02-10T01:43:31;11;11;
44980;PMS5003;67464;52.438;-1.904;2023-02-10T01:45:56;7;6;
44980;PMS5003;67464;52.438;-1.904;2023-02-10T01:48:22;11;11;
44980;PMS5003;67464;52.438;-1.904;2023-02-10T01:50:48;11;8;
44980;PMS5003;67464;52.438;-1.904;2023-02-10T01:53:12;7;7;
44980;PMS5003;67464;52.438;-1.904;2023-02-10T01:55:38;5;5;
44980;PMS5003;67464;52.438;-1.904;2023-02-10T01:58:04;11;8;
44980;PMS5003;67464;52.438;-1.904;2023-02-10T02:00:28;11;11;
44980;PMS5003;67464;52.438;-1.904;2023-02-10T02:02:53;7;7;
44980;PMS5003;67464;52.438;-1.904;2023-02-10T02:05:22;6;5;
44980;PMS5003;67464;52.438;-1.904;2023-02-10T02:07:44;8;7;
44980;PMS5003;67464;52.438;-1.904;2023-02-10T02:10:09;7;6;
44980;PMS5003;67464;52.438;-1.904;2023-02-10T02:12:36;12;8;
44980;PMS5003;67464;52.438;-1.904;2023-02-10T02:15:01;4;4;
44980;PMS5003;67464;52.438;-1.904;2023-02-10T02:17:26;8;8;
44980;PMS5003;67464;52.438;-1.904;2023-02-10T02:20:04;7;7;
44980;PMS5003;67464;52.438;-1.904;2023-02-10T02:22:20;6;6;
44980;PMS5003;67464;52.438;-1.904;2023-02-10T02:24:45;13;7;
44980;PMS5003;67464;52.438;-1.904;2023-02-10T02:27:11;6;6;
44980;PMS5003;67464;52.438;-1.904;2023-02-10T02:29:45;5;5;
44980;PMS5003;67464;52.438;-1.904;2023-02-10T02:31:59;7;6;
44980;PMS5003;67464;52.438;-1.904;2023-02-10T02:34:24;7;7;
44980;PMS5003;67464;52.438;-1.904;2023-02-10T02:36:49;6;6;
44980;PMS5003;67464;52.438;-1.904;2023-02-10T02:39:13;5;5;
44980;PMS5003;67464;52.438;-1.904;2023-02-10T02:41:39;3;3;
44980;PMS5003;67464;52.438;-1.904;2023-02-10T02:44:05;3;3;
44980;PMS5003;67464;52.438;-1.904;2023-02-10T02:46:32;5;3;
44980;PMS5003;67464;52.438;-1.904;2023-02-10T02:48:56;5;5;
44980;PMS5003;67464;52.438;-1.904;2023-02-10T02:51:23;7;5;
44980;PMS5003;67464;52.438;-1.904;2023-02-10T02:53:46;5;5;
44980;PMS5003;67464;52.438;-1.904;2023-02-10T02:56:14;10;8;
44980;PMS5003;67464;52.438;-1.904;2023-02-10T02:58:40;8;7;
44980;PMS5003;67464;52.438;-1.904;2023-02-10T03:01:02;7;7;
44980;PMS5003;67464;52.438;-1.904;2023-02-10T03:03:27;5;5;
44980;PMS5003;67464;52.438;-1.904;2023-02-10T03:05:52;5;5;
44980;PMS5003;67464;52.438;-1.904;2023-02-10T03:08:17;5;5;
44980;PMS5003;67464;52.438;-1.904;2023-02-10T03:10:42;11;6;
44980;PMS5003;67464;52.438;-1.904;2023-02-10T03:13:08;7;5;
44980;PMS5003;67464;52.438;-1.904;2023-02-10T03:15:33;3;3;
44980;PMS5003;67464;52.438;-1.904;2023-02-10T03:17:58;6;3;
44980;PMS5003;67464;52.438;-1.904;2023-02-10T03:20:24;6;6;
44980;PMS5003;67464;52.438;-1.904;2023-02-10T03:22:49;6;5;
44980;PMS5003;67464;52.438;-1.904;2023-02-10T03:25:14;7;3;
44980;PMS5003;67464;52.438;-1.904;2023-02-10T03:27:39;2;2;
44980;PMS5003;67464;52.438;-1.904;2023-02-10T03:30:05;5;5;
44980;PMS5003;67464;52.438;-1.904;2023-02-10T03:32:30;5;5;
44980;PMS5003;67464;52.438;-1.904;2023-02-10T03:34:55;6;5;
44980;PMS5003;67464;52.438;-1.904;2023-02-10T03:37:20;3;3;
44980;PMS5003;67464;52.438;-1.904;2023-02-10T03:39:45;5;5;
44980;PMS5003;67464;52.438;-1.904;2023-02-10T03:42:10;3;3;
44980;PMS5003;67464;52.438;-1.904;2023-02-10T03:44:36;6;3;
44980;PMS5003;67464;52.438;-1.904;2023-02-10T03:47:01;5;3;
44980;PMS5003;67464;52.438;-1.904;2023-02-10T03:49:26;3;3;
44980;PMS5003;67464;52.438;-1.904;2023-02-10T03:51:51;3;3;
44980;PMS5003;67464;52.438;-1.904;2023-02-10T03:54:16;2;2;
44980;PMS5003;67464;52.438;-1.904;2023-02-10T03:56:41;3;3;
44980;PMS5003;67464;52.438;-1.904;2023-02-10T03:59:07;5;2;
44980;PMS5003;67464;52.438;-1.904;2023-02-10T04:01:32;5;2;
44980;PMS5003;67464;52.438;-1.904;2023-02-10T04:03:57;2;2;
44980;PMS5003;67464;52.438;-1.904;2023-02-10T04:06:22;3;3;
44980;PMS5003;67464;52.438;-1.904;2023-02-10T04:08:48;5;5;
44980;PMS5003;67464;52.438;-1.904;2023-02-10T04:11:13;3;3;
44980;PMS5003;67464;52.438;-1.904;2023-02-10T04:13:38;2;2;
44980;PMS5003;67464;52.438;-1.904;2023-02-10T04:16:04;6;3;
44980;PMS5003;67464;52.438;-1.904;2023-02-10T04:18:28;2;1;
44980;PMS5003;67464;52.438;-1.904;2023-02-10T04:20:54;5;5;
44980;PMS5003;67464;52.438;-1.904;2023-02-10T04:23:19;3;3;
44980;PMS5003;67464;52.438;-1.904;2023-02-10T04:25:44;5;5;
44980;PMS5003;67464;52.438;-1.904;2023-02-10T04:28:10;5;5;
44980;PMS5003;67464;52.438;-1.904;2023-02-10T04:30:35;3;3;
44980;PMS5003;67464;52.438;-1.904;2023-02-10T04:33:00;3;3;
44980;PMS5003;67464;52.438;-1.904;2023-02-10T04:35:25;5;5;
44980;PMS5003;67464;52.438;-1.904;2023-02-10T04:37:51;2;2;
44980;PMS5003;67464;52.438;-1.904;2023-02-10T04:40:16;11;11;
44980;PMS5003;67464;52.438;-1.904;2023-02-10T04:42:42;11;11;
44980;PMS5003;67464;52.438;-1.904;2023-02-10T04:45:07;8;6;
44980;PMS5003;67464;52.438;-1.904;2023-02-10T04:47:32;6;6;
44980;PMS5003;67464;52.438;-1.904;2023-02-10T04:49:57;6;6;
44980;PMS5003;67464;52.438;-1.904;2023-02-10T04:52:23;10;6;
44980;PMS5003;67464;52.438;-1.904;2023-02-10T04:54:48;5;5;
44980;PMS5003;67464;52.438;-1.904;2023-02-10T04:57:13;7;5;
44980;PMS5003;67464;52.438;-1.904;2023-02-10T04:59:38;7;3;
44980;PMS5003;67464;52.438;-1.904;2023-02-10T05:02:03;6;6;
44980;PMS5003;67464;52.438;-1.904;2023-02-10T05:04:28;5;5;
44980;PMS5003;67464;52.438;-1.904;2023-02-10T05:06:54;5;5;
44980;PMS5003;67464;52.438;-1.904;2023-02-10T05:09:19;5;5;
44980;PMS5003;67464;52.438;-1.904;2023-02-10T05:11:44;5;5;
44980;PMS5003;67464;52.438;-1.904;2023-02-10T05:14:09;5;2;
44980;PMS5003;67464;52.438;-1.904;2023-02-10T05:16:35;5;3;
44980;PMS5003;67464;52.438;-1.904;2023-02-10T05:19:01;3;3;
44980;PMS5003;67464;52.438;-1.904;2023-02-10T05:21:26;5;3;
44980;PMS5003;67464;52.438;-1.904;2023-02-10T05:23:51;7;3;
44980;PMS5003;67464;52.438;-1.904;2023-02-10T05:26:16;7;5;
44980;PMS5003;67464;52.438;-1.904;2023-02-10T05:28:41;5;5;
44980;PMS5003;67464;52.438;-1.904;2023-02-10T05:31:07;3;3;
44980;PMS5003;67464;52.438;-1.904;2023-02-10T05:33:32;6;6;
44980;PMS5003;67464;52.438;-1.904;2023-02-10T05:35:57;5;5;
44980;PMS5003;67464;52.438;-1.904;2023-02-10T05:38:22;8;6;
44980;PMS5003;67464;52.438;-1.904;2023-02-10T05:40:48;5;5;
44980;PMS5003;67464;52.438;-1.904;2023-02-10T05:43:12;3;3;
44980;PMS5003;67464;52.438;-1.904;2023-02-10T05:45:38;6;6;
44980;PMS5003;67464;52.438;-1.904;2023-02-10T05:48:03;8;6;
44980;PMS5003;67464;52.438;-1.904;2023-02-10T05:50:28;7;6;
44980;PMS5003;67464;52.438;-1.904;2023-02-10T05:52:54;5;5;
44980;PMS5003;67464;52.438;-1.904;2023-02-10T05:55:19;11;7;
44980;PMS5003;67464;52.438;-1.904;2023-02-10T05:57:44;7;6;
44980;PMS5003;67464;52.438;-1.904;2023-02-10T06:00:10;5;5;
44980;PMS5003;67464;52.438;-1.904;2023-02-10T06:02:35;2;2;
44980;PMS5003;67464;52.438;-1.904;2023-02-10T06:05:00;2;2;
44980;PMS5003;67464;52.438;-1.904;2023-02-10T06:07:25;6;3;
44980;PMS5003;67464;52.438;-1.904;2023-02-10T06:09:51;6;6;
44980;PMS5003;67464;52.438;-1.904;2023-02-10T06:12:16;7;6;
44980;PMS5003;67464;52.438;-1.904;2023-02-10T06:14:41;4;4;
44980;PMS5003;67464;52.438;-1.904;2023-02-10T06:17:06;3;3;
44980;PMS5003;67464;52.438;-1.904;2023-02-10T06:19:31;6;4;
44980;PMS5003;67464;52.438;-1.904;2023-02-10T06:21:57;4;3;
44980;PMS5003;67464;52.438;-1.904;2023-02-10T06:24:22;6;6;
44980;PMS5003;67464;52.438;-1.904;2023-02-10T06:26:47;7;4;
44980;PMS5003;67464;52.438;-1.904;2023-02-10T06:29:12;4;4;
44980;PMS5003;67464;52.438;-1.904;2023-02-10T06:31:38;7;6;
44980;PMS5003;67464;52.438;-1.904;2023-02-10T06:34:04;8;6;
44980;PMS5003;67464;52.438;-1.904;2023-02-10T06:36:29;4;4;
44980;PMS5003;67464;52.438;-1.904;2023-02-10T06:38:54;5;5;
44980;PMS5003;67464;52.438;-1.904;2023-02-10T06:41:20;5;5;
44980;PMS5003;67464;52.438;-1.904;2023-02-10T06:43:45;5;3;
44980;PMS5003;67464;52.438;-1.904;2023-02-10T06:46:11;3;3;
44980;PMS5003;67464;52.438;-1.904;2023-02-10T06:48:36;6;6;
44980;PMS5003;67464;52.438;-1.904;2023-02-10T06:51:01;4;3;
44980;PMS5003;67464;52.438;-1.904;2023-02-10T06:53:26;7;7;
44980;PMS5003;67464;52.438;-1.904;2023-02-10T06:55:54;11;6;
44980;PMS5003;67464;52.438;-1.904;2023-02-10T06:58:16;4;4;
44980;PMS5003;67464;52.438;-1.904;2023-02-10T07:00:42;1;1;
44980;PMS5003;67464;52.438;-1.904;2023-02-10T07:03:07;7;7;
44980;PMS5003;67464;52.438;-1.904;2023-02-10T07:05:32;6;3;
44980;PMS5003;67464;52.438;-1.904;2023-02-10T07:07:57;4;2;
44980;PMS5003;67464;52.438;-1.904;2023-02-10T07:10:22;4;2;
44980;PMS5003;67464;52.438;-1.904;2023-02-10T07:12:47;3;3;
44980;PMS5003;67464;52.438;-1.904;2023-02-10T07:15:13;7;3;
44980;PMS5003;67464;52.438;-1.904;2023-02-10T07:17:38;3;3;
44980;PMS5003;67464;52.438;-1.904;2023-02-10T07:20:03;7;4;
44980;PMS5003;67464;52.438;-1.904;2023-02-10T07:22:28;3;3;
44980;PMS5003;67464;52.438;-1.904;2023-02-10T07:24:54;4;3;
44980;PMS5003;67464;52.438;-1.904;2023-02-10T07:27:19;7;6;
44980;PMS5003;67464;52.438;-1.904;2023-02-10T07:29:44;3;3;
44980;PMS5003;67464;52.438;-1.904;2023-02-10T07:32:09;7;3;
44980;PMS5003;67464;52.438;-1.904;2023-02-10T07:34:35;8;8;
44980;PMS5003;67464;52.438;-1.904;2023-02-10T07:37:00;4;1;
44980;PMS5003;67464;52.438;-1.904;2023-02-10T07:39:25;8;2;
44980;PMS5003;67464;52.438;-1.904;2023-02-10T07:41:50;3;3;
44980;PMS5003;67464;52.438;-1.904;2023-02-10T07:44:15;6;4;
44980;PMS5003;67464;52.438;-1.904;2023-02-10T07:46:40;3;3;
44980;PMS5003;67464;52.438;-1.904;2023-02-10T07:49:05;6;3;
44980;PMS5003;67464;52.438;-1.904;2023-02-10T07:51:31;4;4;
44980;PMS5003;67464;52.438;-1.904;2023-02-10T07:53:56;2;2;
44980;PMS5003;67464;52.438;-1.904;2023-02-10T07:56:21;1;1;
44980;PMS5003;67464;52.438;-1.904;2023-02-10T07:58:47;7;6;
44980;PMS5003;67464;52.438;-1.904;2023-02-10T08:01:13;3;3;
44980;PMS5003;67464;52.438;-1.904;2023-02-10T08:03:38;4;4;
44980;PMS5003;67464;52.438;-1.904;2023-02-10T08:06:04;3;3;
44980;PMS5003;67464;52.438;-1.904;2023-02-10T08:08:28;2;2;
44980;PMS5003;67464;52.438;-1.904;2023-02-10T08:10:53;3;3;
44980;PMS5003;67464;52.438;-1.904;2023-02-10T08:13:18;6;4;
44980;PMS5003;67464;52.438;-1.904;2023-02-10T08:15:44;3;3;
44980;PMS5003;67464;52.438;-1.904;2023-02-10T08:18:09;6;3;
44980;PMS5003;67464;52.438;-1.904;2023-02-10T08:20:34;3;3;
44980;PMS5003;67464;52.438;-1.904;2023-02-10T08:23:00;2;2;
44980;PMS5003;67464;52.438;-1.904;2023-02-10T08:25:25;4;4;
44980;PMS5003;67464;52.438;-1.904;2023-02-10T08:27:50;1;1;
44980;PMS5003;67464;52.438;-1.904;2023-02-10T08:30:16;10;8;
44980;PMS5003;67464;52.438;-1.904;2023-02-10T08:32:40;6;6;
44980;PMS5003;67464;52.438;-1.904;2023-02-10T08:35:05;4;4;
44980;PMS5003;67464;52.438;-1.904;2023-02-10T08:37:31;3;3;
44980;PMS5003;67464;52.438;-1.904;2023-02-10T08:39:57;3;3;
44980;PMS5003;67464;52.438;-1.904;2023-02-10T08:42:22;3;3;
44980;PMS5003;67464;52.438;-1.904;2023-02-10T08:44:47;3;3;
44980;PMS5003;67464;52.438;-1.904;2023-02-10T08:47:12;5;4;
44980;PMS5003;67464;52.438;-1.904;2023-02-10T08:49:37;4;4;
44980;PMS5003;67464;52.438;-1.904;2023-02-10T08:52:03;8;5;
44980;PMS5003;67464;52.438;-1.904;2023-02-10T08:54:28;4;4;
44980;PMS5003;67464;52.438;-1.904;2023-02-10T08:56:53;7;5;
44980;PMS5003;67464;52.438;-1.904;2023-02-10T08:59:18;3;3;
44980;PMS5003;67464;52.438;-1.904;2023-02-10T09:01:44;4;4;
44980;PMS5003;67464;52.438;-1.904;2023-02-10T09:04:09;4;4;
44980;PMS5003;67464;52.438;-1.904;2023-02-10T09:06:35;3;3;
44980;PMS5003;67464;52.438;-1.904;2023-02-10T09:09:00;3;3;
44980;PMS5003;67464;52.438;-1.904;2023-02-10T09:11:25;7;6;
44980;PMS5003;67464;52.438;-1.904;2023-02-10T09:13:50;9;8;
44980;PMS5003;67464;52.438;-1.904;2023-02-10T09:16:15;8;7;
44980;PMS5003;67464;52.438;-1.904;2023-02-10T09:18:40;8;7;
44980;PMS5003;67464;52.438;-1.904;2023-02-10T09:21:05;8;8;
44980;PMS5003;67464;52.438;-1.904;2023-02-10T09:23:30;9;9;
44980;PMS5003;67464;52.438;-1.904;2023-02-10T09:25:56;8;7;
44980;PMS5003;67464;52.438;-1.904;2023-02-10T09:28:21;11;8;
44980;PMS5003;67464;52.438;-1.904;2023-02-10T09:30:46;14;10;
44980;PMS5003;67464;52.438;-1.904;2023-02-10T09:33:13;9;9;
44980;PMS5003;67464;52.438;-1.904;2023-02-10T09:35:37;9;9;
44980;PMS5003;67464;52.438;-1.904;2023-02-10T09:38:02;13;10;
44980;PMS5003;67464;52.438;-1.904;2023-02-10T09:40:34;10;10;
44980;PMS5003;67464;52.438;-1.904;2023-02-10T09:42:58;11;9;
44980;PMS5003;67464;52.438;-1.904;2023-02-10T09:45:20;36;35;
44980;PMS5003;67464;52.438;-1.904;2023-02-10T09:47:45;23;21;
44980;PMS5003;67464;52.438;-1.904;2023-02-10T09:50:16;20;19;
44980;PMS5003;67464;52.438;-1.904;2023-02-10T09:52:38;10;9;
44980;PMS5003;67464;52.438;-1.904;2023-02-10T09:55:00;10;6;
44980;PMS5003;67464;52.438;-1.904;2023-02-10T09:57:38;9;5;
44980;PMS5003;67464;52.438;-1.904;2023-02-10T09:59:52;7;6;
44980;PMS5003;67464;52.438;-1.904;2023-02-10T10:02:24;5;5;
44980;PMS5003;67464;52.438;-1.904;2023-02-10T10:04:43;6;4;
44980;PMS5003;67464;52.438;-1.904;2023-02-10T10:07:11;12;11;
44980;PMS5003;67464;52.438;-1.904;2023-02-10T10:09:35;8;5;
44980;PMS5003;67464;52.438;-1.904;2023-02-10T10:12:00;4;4;
44980;PMS5003;67464;52.438;-1.904;2023-02-10T10:14:26;5;5;
44980;PMS5003;67464;52.438;-1.904;2023-02-10T10:16:56;7;7;
44980;PMS5003;67464;52.438;-1.904;2023-02-10T10:19:19;6;4;
44980;PMS5003;67464;52.438;-1.904;2023-02-10T10:21:43;5;5;
44980;PMS5003;67464;52.438;-1.904;2023-02-10T10:24:12;4;3;
44980;PMS5003;67464;52.438;-1.904;2023-02-10T10:26:41;6;6;
44980;PMS5003;67464;52.438;-1.904;2023-02-10T10:29:01;6;4;
44980;PMS5003;67464;52.438;-1.904;2023-02-10T10:31:26;3;3;
44980;PMS5003;67464;52.438;-1.904;2023-02-10T10:33:51;2;2;
44980;PMS5003;67464;52.438;-1.904;2023-02-10T10:36:17;3;3;
44980;PMS5003;67464;52.438;-1.904;2023-02-10T10:38:43;4;3;
44980;PMS5003;67464;52.438;-1.904;2023-02-10T10:41:10;4;4;
44980;PMS5003;67464;52.438;-1.904;2023-02-10T10:43:35;7;5;
44980;PMS5003;67464;52.438;-1.904;2023-02-10T10:45:59;3;3;
44980;PMS5003;67464;52.438;-1.904;2023-02-10T10:48:24;8;5;
44980;PMS5003;67464;52.438;-1.904;2023-02-10T10:50:50;7;5;
44980;PMS5003;67464;52.438;-1.904;2023-02-10T10:53:17;11;8;
44980;PMS5003;67464;52.438;-1.904;2023-02-10T10:55:42;4;4;
44980;PMS5003;67464;52.438;-1.904;2023-02-10T10:58:08;6;4;
44980;PMS5003;67464;52.438;-1.904;2023-02-10T11:00:32;4;4;
44980;PMS5003;67464;52.438;-1.904;2023-02-10T11:02:59;11;9;
44980;PMS5003;67464;52.438;-1.904;2023-02-10T11:05:25;8;8;
44980;PMS5003;67464;52.438;-1.904;2023-02-10T11:07:49;11;8;
44980;PMS5003;67464;52.438;-1.904;2023-02-10T11:12:40;7;5;
44980;PMS5003;67464;52.438;-1.904;2023-02-10T11:17:32;5;5;
44980;PMS5003;67464;52.438;-1.904;2023-02-10T11:19:58;7;7;
44980;PMS5003;67464;52.438;-1.904;2023-02-10T11:22:23;9;7;
44980;PMS5003;67464;52.438;-1.904;2023-02-10T11:24:49;8;8;
44980;PMS5003;67464;52.438;-1.904;2023-02-10T11:27:14;10;8;
44980;PMS5003;67464;52.438;-1.904;2023-02-10T11:29:47;15;12;
44980;PMS5003;67464;52.438;-1.904;2023-02-10T11:32:05;9;9;
44980;PMS5003;67464;52.438;-1.904;2023-02-10T11:34:32;13;13;
44980;PMS5003;67464;52.438;-1.904;2023-02-10T11:36:58;14;14;
44980;PMS5003;67464;52.438;-1.904;2023-02-10T11:39:23;10;10;
44980;PMS5003;67464;52.438;-1.904;2023-02-10T11:41:48;7;6;
44980;PMS5003;67464;52.438;-1.904;2023-02-10T11:44:20;8;8;
44980;PMS5003;67464;52.438;-1.904;2023-02-10T11:46:38;7;7;
44980;PMS5003;67464;52.438;-1.904;2023-02-10T11:51:30;8;5;
44980;PMS5003;67464;52.438;-1.904;2023-02-10T11:53:56;5;4;
44980;PMS5003;67464;52.438;-1.904;2023-02-10T11:56:23;5;4;
44980;PMS5003;67464;52.438;-1.904;2023-02-10T11:58:51;6;4;
44980;PMS5003;67464;52.438;-1.904;2023-02-10T12:01:14;7;4;
44980;PMS5003;67464;52.438;-1.904;2023-02-10T12:03:41;4;3;
44980;PMS5003;67464;52.438;-1.904;2023-02-10T12:06:05;5;5;
44980;PMS5003;67464;52.438;-1.904;2023-02-10T12:08:32;5;4;
44980;PMS5003;67464;52.438;-1.904;2023-02-10T12:10:56;3;3;
44980;PMS5003;67464;52.438;-1.904;2023-02-10T12:13:23;6;4;
44980;PMS5003;67464;52.438;-1.904;2023-02-10T12:15:49;6;3;
44980;PMS5003;67464;52.438;-1.904;2023-02-10T12:18:17;5;4;
44980;PMS5003;67464;52.438;-1.904;2023-02-10T12:20:41;5;3;
44980;PMS5003;67464;52.438;-1.904;2023-02-10T12:23:09;6;4;
44980;PMS5003;67464;52.438;-1.904;2023-02-10T12:25:30;3;3;
44980;PMS5003;67464;52.438;-1.904;2023-02-10T12:27:57;3;3;
44980;PMS5003;67464;52.438;-1.904;2023-02-10T12:30:25;4;4;
44980;PMS5003;67464;52.438;-1.904;2023-02-10T12:32:48;8;5;
44980;PMS5003;67464;52.438;-1.904;2023-02-10T12:35:16;4;4;
44980;PMS5003;67464;52.438;-1.904;2023-02-10T12:37:39;5;5;
44980;PMS5003;67464;52.438;-1.904;2023-02-10T12:42:32;6;6;
44980;PMS5003;67464;52.438;-1.904;2023-02-10T12:44:56;5;5;
44980;PMS5003;67464;52.438;-1.904;2023-02-10T12:47:24;4;4;
44980;PMS5003;67464;52.438;-1.904;2023-02-10T12:49:49;4;4;
44980;PMS5003;67464;52.438;-1.904;2023-02-10T12:52:12;5;4;
44980;PMS5003;67464;52.438;-1.904;2023-02-10T12:54:39;5;5;
44980;PMS5003;67464;52.438;-1.904;2023-02-10T12:57:05;9;6;
44980;PMS5003;67464;52.438;-1.904;2023-02-10T12:59:28;4;4;
44980;PMS5003;67464;52.438;-1.904;2023-02-10T13:01:54;5;4;
44980;PMS5003;67464;52.438;-1.904;2023-02-10T13:04:19;6;4;
44980;PMS5003;67464;52.438;-1.904;2023-02-10T13:06:45;5;5;
44980;PMS5003;67464;52.438;-1.904;2023-02-10T13:09:10;4;4;
44980;PMS5003;67464;52.438;-1.904;2023-02-10T13:11:36;5;5;
44980;PMS5003;67464;52.438;-1.904;2023-02-10T13:14:01;5;5;
44980;PMS5003;67464;52.438;-1.904;2023-02-10T13:16:28;6;5;
44980;PMS5003;67464;52.438;-1.904;2023-02-10T13:18:53;5;5;
44980;PMS5003;67464;52.438;-1.904;2023-02-10T13:21:19;6;6;
44980;PMS5003;67464;52.438;-1.904;2023-02-10T13:23:44;5;5;
44980;PMS5003;67464;52.438;-1.904;2023-02-10T13:26:14;5;5;
44980;PMS5003;67464;52.438;-1.904;2023-02-10T13:28:36;3;3;
44980;PMS5003;67464;52.438;-1.904;2023-02-10T13:31:03;4;4;
44980;PMS5003;67464;52.438;-1.904;2023-02-10T13:33:27;7;5;
44980;PMS5003;67464;52.438;-1.904;2023-02-10T13:35:51;9;6;
44980;PMS5003;67464;52.438;-1.904;2023-02-10T13:38:18;6;4;
44980;PMS5003;67464;52.438;-1.904;2023-02-10T13:40:45;7;7;
44980;PMS5003;67464;52.438;-1.904;2023-02-10T13:45:36;7;5;
44980;PMS5003;67464;52.438;-1.904;2023-02-10T13:48:01;6;6;
44980;PMS5003;67464;52.438;-1.904;2023-02-10T13:50:27;7;5;
44980;PMS5003;67464;52.438;-1.904;2023-02-10T13:52:53;6;6;
44980;PMS5003;67464;52.438;-1.904;2023-02-10T14:00:14;5;4;
44980;PMS5003;67464;52.438;-1.904;2023-02-10T14:02:34;7;6;
44980;PMS5003;67464;52.438;-1.904;2023-02-10T14:05:00;4;4;
44980;PMS5003;67464;52.438;-1.904;2023-02-10T14:07:32;9;8;
44980;PMS5003;67464;52.438;-1.904;2023-02-10T14:12:23;3;3;
44980;PMS5003;67464;52.438;-1.904;2023-02-10T14:14:42;6;5;
44980;PMS5003;67464;52.438;-1.904;2023-02-10T14:17:17;4;4;
44980;PMS5003;67464;52.438;-1.904;2023-02-10T14:19:35;6;6;
44980;PMS5003;67464;52.438;-1.904;2023-02-10T14:22:00;5;4;
44980;PMS5003;67464;52.438;-1.904;2023-02-10T14:24:26;6;4;
44980;PMS5003;67464;52.438;-1.904;2023-02-10T14:26:51;4;4;
44980;PMS5003;67464;52.438;-1.904;2023-02-10T14:29:18;5;5;
44980;PMS5003;67464;52.438;-1.904;2023-02-10T14:31:43;6;6;
44980;PMS5003;67464;52.438;-1.904;2023-02-10T14:36:34;6;6;
44980;PMS5003;67464;52.438;-1.904;2023-02-10T14:39:00;5;5;
44980;PMS5003;67464;52.438;-1.904;2023-02-10T14:41:26;7;5;
44980;PMS5003;67464;52.438;-1.904;2023-02-10T14:43:51;6;5;
44980;PMS5003;67464;52.438;-1.904;2023-02-10T14:46:18;8;6;
44980;PMS5003;67464;52.438;-1.904;2023-02-10T14:48:42;8;6;
44980;PMS5003;67464;52.438;-1.904;2023-02-10T14:53:34;6;6;
44980;PMS5003;67464;52.438;-1.904;2023-02-10T14:56:00;7;6;
44980;PMS5003;67464;52.438;-1.904;2023-02-10T14:58:25;3;3;
44980;PMS5003;67464;52.438;-1.904;2023-02-10T15:00:53;7;7;
44980;PMS5003;67464;52.438;-1.904;2023-02-10T15:03:17;5;5;
44980;PMS5003;67464;52.438;-1.904;2023-02-10T15:05:44;6;6;
44980;PMS5003;67464;52.438;-1.904;2023-02-10T15:08:08;7;7;
44980;PMS5003;67464;52.438;-1.904;2023-02-10T15:10:35;9;6;
44980;PMS5003;67464;52.438;-1.904;2023-02-10T15:12:59;10;8;
44980;PMS5003;67464;52.438;-1.904;2023-02-10T15:15:26;6;6;
44980;PMS5003;67464;52.438;-1.904;2023-02-10T15:17:52;10;8;
44980;PMS5003;67464;52.438;-1.904;2023-02-10T15:20:21;10;10;
44980;PMS5003;67464;52.438;-1.904;2023-02-10T15:22:43;10;9;
44980;PMS5003;67464;52.438;-1.904;2023-02-10T15:27:35;6;6;
44980;PMS5003;67464;52.438;-1.904;2023-02-10T15:32:25;9;8;
44980;PMS5003;67464;52.438;-1.904;2023-02-10T15:34:50;5;5;
44980;PMS5003;67464;52.438;-1.904;2023-02-10T15:37:17;8;8;
44980;PMS5003;67464;52.438;-1.904;2023-02-10T15:39:42;8;7;
44980;PMS5003;67464;52.438;-1.904;2023-02-10T15:44:35;5;5;
44980;PMS5003;67464;52.438;-1.904;2023-02-10T15:49:25;11;10;
44980;PMS5003;67464;52.438;-1.904;2023-02-10T15:51:51;9;9;
44980;PMS5003;67464;52.438;-1.904;2023-02-10T15:54:17;8;7;
44980;PMS5003;67464;52.438;-1.904;2023-02-10T15:56:42;6;6;
44980;PMS5003;67464;52.438;-1.904;2023-02-10T15:59:12;8;8;
44980;PMS5003;67464;52.438;-1.904;2023-02-10T16:01:33;13;10;
44980;PMS5003;67464;52.438;-1.904;2023-02-10T16:03:59;11;11;
44980;PMS5003;67464;52.438;-1.904;2023-02-10T16:06:25;7;7;
44980;PMS5003;67464;52.438;-1.904;2023-02-10T16:08:51;13;11;
44980;PMS5003;67464;52.438;-1.904;2023-02-10T16:11:17;10;10;
44980;PMS5003;67464;52.438;-1.904;2023-02-10T16:13:42;13;13;
44980;PMS5003;67464;52.438;-1.904;2023-02-10T16:16:11;11;10;
44980;PMS5003;67464;52.438;-1.904;2023-02-10T16:18:33;20;16;
44980;PMS5003;67464;52.438;-1.904;2023-02-10T16:20:58;21;19;
44980;PMS5003;67464;52.438;-1.904;2023-02-10T16:23:23;13;10;
44980;PMS5003;67464;52.438;-1.904;2023-02-10T16:25:49;18;16;
44980;PMS5003;67464;52.438;-1.904;2023-02-10T16:28:15;17;16;
44980;PMS5003;67464;52.438;-1.904;2023-02-10T16:30:40;36;32;
44980;PMS5003;67464;52.438;-1.904;2023-02-10T16:33:05;12;9;
44980;PMS5003;67464;52.438;-1.904;2023-02-10T16:35:30;15;13;
44980;PMS5003;67464;52.438;-1.904;2023-02-10T16:37:56;10;10;
44980;PMS5003;67464;52.438;-1.904;2023-02-10T16:40:23;18;15;
44980;PMS5003;67464;52.438;-1.904;2023-02-10T16:42:47;24;21;
44980;PMS5003;67464;52.438;-1.904;2023-02-10T16:45:12;13;13;
44980;PMS5003;67464;52.438;-1.904;2023-02-10T16:47:38;13;13;
44980;PMS5003;67464;52.438;-1.904;2023-02-10T16:50:04;15;15;